sensor_id;sensor_type;location;lat;lon;timestamp;P1;durP1;ratioP1;P2;durP2;ratioP2
39188;SDS011;24915;50.858;4.376;2023-04-07T00:02:16;22.13;;;9.68;;
39188;SDS011;24915;50.858;4.376;2023-04-07T00:04:41;21.88;;;9.88;;
39188;SDS011;24915;50.858;4.376;2023-04-07T00:07:07;24.13;;;10.80;;
39188;SDS011;24915;50.858;4.376;2023-04-07T00:09:33;19.52;;;10.50;;
39188;SDS011;24915;50.858;4.376;2023-04-07T00:11:59;20.02;;;10.05;;
39188;SDS011;24915;50.858;4.376;2023-04-07T00:14:28;19.65;;;10.80;;
39188;SDS011;24915;50.858;4.376;2023-04-07T00:16:54;21.13;;;10.27;;
39188;SDS011;24915;50.858;4.376;2023-04-07T00:19:20;28.88;;;11.63;;
39188;SDS011;24915;50.858;4.376;2023-04-07T00:21:45;22.50;;;11.90;;
39188;SDS011;24915;50.858;4.376;2023-04-07T00:24:11;27.85;;;11.98;;
39188;SDS011;24915;50.858;4.376;2023-04-07T00:26:37;23.08;;;11.52;;
39188;SDS011;24915;50.858;4.376;2023-04-07T00:29:02;23.30;;;12.48;;
39188;SDS011;24915;50.858;4.376;2023-04-07T00:31:28;24.73;;;12.48;;
39188;SDS011;24915;50.858;4.376;2023-04-07T00:33:54;21.30;;;11.45;;
39188;SDS011;24915;50.858;4.376;2023-04-07T00:36:21;22.73;;;11.60;;
39188;SDS011;24915;50.858;4.376;2023-04-07T00:38:47;26.42;;;11.70;;
39188;SDS011;24915;50.858;4.376;2023-04-07T00:41:13;25.10;;;11.98;;
39188;SDS011;24915;50.858;4.376;2023-04-07T00:43:39;22.30;;;11.45;;
39188;SDS011;24915;50.858;4.376;2023-04-07T00:46:04;21.42;;;12.23;;
39188;SDS011;24915;50.858;4.376;2023-04-07T00:48:30;21.58;;;12.43;;
39188;SDS011;24915;50.858;4.376;2023-04-07T00:50:56;21.60;;;12.43;;
39188;SDS011;24915;50.858;4.376;2023-04-07T00:53:21;22.10;;;12.23;;
39188;SDS011;24915;50.858;4.376;2023-04-07T00:55:47;19.85;;;11.95;;
39188;SDS011;24915;50.858;4.376;2023-04-07T00:58:13;23.73;;;11.50;;
39188;SDS011;24915;50.858;4.376;2023-04-07T01:01:22;22.08;;;12.43;;
39188;SDS011;24915;50.858;4.376;2023-04-07T01:03:45;29.00;;;13.10;;
39188;SDS011;24915;50.858;4.376;2023-04-07T01:06:17;25.60;;;13.27;;
39188;SDS011;24915;50.858;4.376;2023-04-07T01:08:48;19.55;;;12.57;;
39188;SDS011;24915;50.858;4.376;2023-04-07T01:11:28;26.08;;;12.82;;
39188;SDS011;24915;50.858;4.376;2023-04-07T01:13:55;21.83;;;13.05;;
39188;SDS011;24915;50.858;4.376;2023-04-07T01:16:23;23.52;;;12.48;;
39188;SDS011;24915;50.858;4.376;2023-04-07T01:18:54;20.25;;;12.13;;
39188;SDS011;24915;50.858;4.376;2023-04-07T01:21:25;22.98;;;12.48;;
39188;SDS011;24915;50.858;4.376;2023-04-07T01:26:46;21.20;;;12.55;;
39188;SDS011;24915;50.858;4.376;2023-04-07T01:31:59;25.25;;;12.80;;
39188;SDS011;24915;50.858;4.376;2023-04-07T01:34:28;21.15;;;12.45;;
39188;SDS011;24915;50.858;4.376;2023-04-07T01:36:55;23.30;;;13.50;;
39188;SDS011;24915;50.858;4.376;2023-04-07T01:39:25;33.50;;;13.23;;
39188;SDS011;24915;50.858;4.376;2023-04-07T01:41:51;27.23;;;13.43;;
39188;SDS011;24915;50.858;4.376;2023-04-07T01:44:19;23.10;;;12.70;;
39188;SDS011;24915;50.858;4.376;2023-04-07T01:46:45;23.77;;;13.40;;
39188;SDS011;24915;50.858;4.376;2023-04-07T01:49:12;26.23;;;12.95;;
39188;SDS011;24915;50.858;4.376;2023-04-07T01:51:39;24.73;;;13.70;;
39188;SDS011;24915;50.858;4.376;2023-04-07T01:54:06;31.52;;;14.68;;
39188;SDS011;24915;50.858;4.376;2023-04-07T01:56:32;23.77;;;14.02;;
39188;SDS011;24915;50.858;4.376;2023-04-07T01:58:58;30.45;;;14.32;;
39188;SDS011;24915;50.858;4.376;2023-04-07T02:01:24;29.98;;;14.63;;
39188;SDS011;24915;50.858;4.376;2023-04-07T02:06:33;33.72;;;14.82;;
39188;SDS011;24915;50.858;4.376;2023-04-07T02:09:04;26.00;;;14.18;;
39188;SDS011;24915;50.858;4.376;2023-04-07T02:11:32;29.30;;;13.68;;
39188;SDS011;24915;50.858;4.376;2023-04-07T02:14:00;29.70;;;15.13;;
39188;SDS011;24915;50.858;4.376;2023-04-07T02:16:31;30.38;;;14.45;;
39188;SDS011;24915;50.858;4.376;2023-04-07T02:18:57;23.67;;;14.18;;
39188;SDS011;24915;50.858;4.376;2023-04-07T02:21:24;28.02;;;14.43;;
39188;SDS011;24915;50.858;4.376;2023-04-07T02:23:51;30.90;;;15.07;;
39188;SDS011;24915;50.858;4.376;2023-04-07T02:26:16;28.13;;;13.77;;
39188;SDS011;24915;50.858;4.376;2023-04-07T02:28:42;26.48;;;14.07;;
39188;SDS011;24915;50.858;4.376;2023-04-07T02:31:08;24.33;;;13.85;;
39188;SDS011;24915;50.858;4.376;2023-04-07T02:33:33;22.98;;;13.23;;
39188;SDS011;24915;50.858;4.376;2023-04-07T02:35:59;23.52;;;14.02;;
39188;SDS011;24915;50.858;4.376;2023-04-07T02:38:25;26.42;;;13.85;;
39188;SDS011;24915;50.858;4.376;2023-04-07T02:40:51;23.95;;;12.40;;
39188;SDS011;24915;50.858;4.376;2023-04-07T02:43:18;22.63;;;12.25;;
39188;SDS011;24915;50.858;4.376;2023-04-07T02:45:45;26.27;;;11.88;;
39188;SDS011;24915;50.858;4.376;2023-04-07T02:48:11;23.77;;;11.40;;
39188;SDS011;24915;50.858;4.376;2023-04-07T02:50:36;21.40;;;12.02;;
39188;SDS011;24915;50.858;4.376;2023-04-07T02:53:02;23.58;;;11.73;;
39188;SDS011;24915;50.858;4.376;2023-04-07T02:55:27;25.38;;;11.63;;
39188;SDS011;24915;50.858;4.376;2023-04-07T02:57:53;23.73;;;11.80;;
39188;SDS011;24915;50.858;4.376;2023-04-07T03:00:19;19.83;;;12.15;;
39188;SDS011;24915;50.858;4.376;2023-04-07T03:02:45;27.70;;;13.02;;
39188;SDS011;24915;50.858;4.376;2023-04-07T03:05:11;30.98;;;14.60;;
39188;SDS011;24915;50.858;4.376;2023-04-07T03:07:37;34.55;;;14.63;;
39188;SDS011;24915;50.858;4.376;2023-04-07T03:10:03;38.78;;;15.95;;
39188;SDS011;24915;50.858;4.376;2023-04-07T03:12:28;39.28;;;15.50;;
39188;SDS011;24915;50.858;4.376;2023-04-07T03:14:54;42.30;;;16.15;;
39188;SDS011;24915;50.858;4.376;2023-04-07T03:17:20;53.28;;;17.50;;
39188;SDS011;24915;50.858;4.376;2023-04-07T03:19:45;49.25;;;17.75;;
39188;SDS011;24915;50.858;4.376;2023-04-07T03:22:11;53.65;;;18.20;;
39188;SDS011;24915;50.858;4.376;2023-04-07T03:24:36;49.95;;;18.65;;
39188;SDS011;24915;50.858;4.376;2023-04-07T03:27:03;52.17;;;18.55;;
39188;SDS011;24915;50.858;4.376;2023-04-07T03:29:29;44.53;;;17.77;;
39188;SDS011;24915;50.858;4.376;2023-04-07T03:31:54;51.10;;;18.45;;
39188;SDS011;24915;50.858;4.376;2023-04-07T03:34:20;51.45;;;16.45;;
39188;SDS011;24915;50.858;4.376;2023-04-07T03:36:47;42.28;;;17.17;;
39188;SDS011;24915;50.858;4.376;2023-04-07T03:39:12;48.85;;;18.52;;
39188;SDS011;24915;50.858;4.376;2023-04-07T03:41:38;45.63;;;16.35;;
39188;SDS011;24915;50.858;4.376;2023-04-07T03:44:04;54.65;;;18.17;;
39188;SDS011;24915;50.858;4.376;2023-04-07T03:46:30;44.95;;;16.80;;
39188;SDS011;24915;50.858;4.376;2023-04-07T03:48:55;48.80;;;17.05;;
39188;SDS011;24915;50.858;4.376;2023-04-07T03:51:21;52.97;;;17.95;;
39188;SDS011;24915;50.858;4.376;2023-04-07T03:53:46;48.60;;;16.50;;
39188;SDS011;24915;50.858;4.376;2023-04-07T03:56:12;45.97;;;17.40;;
39188;SDS011;24915;50.858;4.376;2023-04-07T03:58:38;45.80;;;16.73;;
39188;SDS011;24915;50.858;4.376;2023-04-07T04:01:06;47.60;;;17.83;;
39188;SDS011;24915;50.858;4.376;2023-04-07T04:03:32;49.33;;;17.23;;
39188;SDS011;24915;50.858;4.376;2023-04-07T04:05:58;50.15;;;17.42;;
39188;SDS011;24915;50.858;4.376;2023-04-07T04:08:24;44.45;;;17.02;;
39188;SDS011;24915;50.858;4.376;2023-04-07T04:10:50;54.53;;;18.95;;
39188;SDS011;24915;50.858;4.376;2023-04-07T04:13:16;56.78;;;20.05;;
39188;SDS011;24915;50.858;4.376;2023-04-07T04:15:41;55.63;;;20.45;;
39188;SDS011;24915;50.858;4.376;2023-04-07T04:18:07;61.38;;;20.52;;
39188;SDS011;24915;50.858;4.376;2023-04-07T04:20:33;55.85;;;20.15;;
39188;SDS011;24915;50.858;4.376;2023-04-07T04:22:59;56.67;;;20.92;;
39188;SDS011;24915;50.858;4.376;2023-04-07T04:25:24;64.68;;;22.95;;
39188;SDS011;24915;50.858;4.376;2023-04-07T04:27:50;60.30;;;21.38;;
39188;SDS011;24915;50.858;4.376;2023-04-07T04:30:16;57.38;;;22.15;;
39188;SDS011;24915;50.858;4.376;2023-04-07T04:32:41;65.03;;;20.90;;
39188;SDS011;24915;50.858;4.376;2023-04-07T04:35:07;58.92;;;22.15;;
39188;SDS011;24915;50.858;4.376;2023-04-07T04:37:33;61.10;;;22.92;;
39188;SDS011;24915;50.858;4.376;2023-04-07T04:39:59;59.65;;;22.00;;
39188;SDS011;24915;50.858;4.376;2023-04-07T04:42:25;52.25;;;21.77;;
39188;SDS011;24915;50.858;4.376;2023-04-07T04:44:52;56.35;;;21.88;;
39188;SDS011;24915;50.858;4.376;2023-04-07T04:47:17;63.33;;;22.55;;
39188;SDS011;24915;50.858;4.376;2023-04-07T04:49:43;55.42;;;20.83;;
39188;SDS011;24915;50.858;4.376;2023-04-07T04:52:09;55.97;;;21.20;;
39188;SDS011;24915;50.858;4.376;2023-04-07T04:54:35;49.05;;;20.35;;
39188;SDS011;24915;50.858;4.376;2023-04-07T04:57:01;53.05;;;21.23;;
39188;SDS011;24915;50.858;4.376;2023-04-07T04:59:26;56.60;;;20.42;;
39188;SDS011;24915;50.858;4.376;2023-04-07T05:01:52;58.70;;;21.13;;
39188;SDS011;24915;50.858;4.376;2023-04-07T05:04:17;58.55;;;22.58;;
39188;SDS011;24915;50.858;4.376;2023-04-07T05:06:43;61.10;;;22.25;;
39188;SDS011;24915;50.858;4.376;2023-04-07T05:09:08;67.53;;;23.10;;
39188;SDS011;24915;50.858;4.376;2023-04-07T05:11:34;49.72;;;20.85;;
39188;SDS011;24915;50.858;4.376;2023-04-07T05:14:00;63.42;;;23.08;;
39188;SDS011;24915;50.858;4.376;2023-04-07T05:16:25;59.92;;;23.27;;
39188;SDS011;24915;50.858;4.376;2023-04-07T05:18:51;62.10;;;21.52;;
39188;SDS011;24915;50.858;4.376;2023-04-07T05:21:17;55.05;;;22.50;;
39188;SDS011;24915;50.858;4.376;2023-04-07T05:23:44;60.17;;;22.30;;
39188;SDS011;24915;50.858;4.376;2023-04-07T05:26:10;60.08;;;23.83;;
39188;SDS011;24915;50.858;4.376;2023-04-07T05:28:35;63.22;;;24.15;;
39188;SDS011;24915;50.858;4.376;2023-04-07T05:31:01;56.55;;;22.70;;
39188;SDS011;24915;50.858;4.376;2023-04-07T05:33:27;57.28;;;23.15;;
39188;SDS011;24915;50.858;4.376;2023-04-07T05:35:52;61.33;;;24.17;;
39188;SDS011;24915;50.858;4.376;2023-04-07T05:38:19;61.95;;;23.02;;
39188;SDS011;24915;50.858;4.376;2023-04-07T05:40:45;54.72;;;23.35;;
39188;SDS011;24915;50.858;4.376;2023-04-07T05:43:11;59.88;;;22.75;;
39188;SDS011;24915;50.858;4.376;2023-04-07T05:45:37;61.75;;;23.52;;
39188;SDS011;24915;50.858;4.376;2023-04-07T05:48:02;63.80;;;24.50;;
39188;SDS011;24915;50.858;4.376;2023-04-07T05:50:28;60.13;;;23.30;;
39188;SDS011;24915;50.858;4.376;2023-04-07T05:52:54;56.85;;;22.70;;
39188;SDS011;24915;50.858;4.376;2023-04-07T05:55:19;65.13;;;23.98;;
39188;SDS011;24915;50.858;4.376;2023-04-07T05:57:45;57.17;;;22.27;;
39188;SDS011;24915;50.858;4.376;2023-04-07T06:00:11;57.95;;;22.23;;
39188;SDS011;24915;50.858;4.376;2023-04-07T06:02:37;57.33;;;22.80;;
39188;SDS011;24915;50.858;4.376;2023-04-07T06:05:04;56.53;;;22.88;;
39188;SDS011;24915;50.858;4.376;2023-04-07T06:07:30;53.30;;;22.00;;
39188;SDS011;24915;50.858;4.376;2023-04-07T06:09:57;53.05;;;22.83;;
39188;SDS011;24915;50.858;4.376;2023-04-07T06:12:22;52.33;;;22.75;;
39188;SDS011;24915;50.858;4.376;2023-04-07T06:14:51;51.83;;;23.30;;
39188;SDS011;24915;50.858;4.376;2023-04-07T06:17:18;44.33;;;20.95;;
39188;SDS011;24915;50.858;4.376;2023-04-07T06:19:44;57.83;;;22.10;;
39188;SDS011;24915;50.858;4.376;2023-04-07T06:22:10;55.33;;;22.70;;
39188;SDS011;24915;50.858;4.376;2023-04-07T06:24:35;54.17;;;22.08;;
39188;SDS011;24915;50.858;4.376;2023-04-07T06:27:01;54.38;;;22.92;;
39188;SDS011;24915;50.858;4.376;2023-04-07T06:29:28;54.50;;;22.92;;
39188;SDS011;24915;50.858;4.376;2023-04-07T06:31:54;58.67;;;23.10;;
39188;SDS011;24915;50.858;4.376;2023-04-07T06:34:20;44.63;;;23.17;;
39188;SDS011;24915;50.858;4.376;2023-04-07T06:36:46;43.42;;;20.27;;
39188;SDS011;24915;50.858;4.376;2023-04-07T06:39:11;49.80;;;23.15;;
39188;SDS011;24915;50.858;4.376;2023-04-07T06:41:37;52.97;;;23.67;;
39188;SDS011;24915;50.858;4.376;2023-04-07T06:44:03;54.40;;;23.02;;
39188;SDS011;24915;50.858;4.376;2023-04-07T06:46:29;54.05;;;22.88;;
39188;SDS011;24915;50.858;4.376;2023-04-07T06:48:55;56.03;;;23.48;;
39188;SDS011;24915;50.858;4.376;2023-04-07T06:51:20;51.03;;;21.63;;
39188;SDS011;24915;50.858;4.376;2023-04-07T06:53:46;48.70;;;21.25;;
39188;SDS011;24915;50.858;4.376;2023-04-07T06:56:12;34.95;;;17.08;;
39188;SDS011;24915;50.858;4.376;2023-04-07T06:58:38;43.40;;;18.65;;
39188;SDS011;24915;50.858;4.376;2023-04-07T07:01:04;41.50;;;19.02;;
39188;SDS011;24915;50.858;4.376;2023-04-07T07:03:31;48.38;;;19.95;;
39188;SDS011;24915;50.858;4.376;2023-04-07T07:05:57;46.72;;;19.25;;
39188;SDS011;24915;50.858;4.376;2023-04-07T07:08:24;35.08;;;16.85;;
39188;SDS011;24915;50.858;4.376;2023-04-07T07:10:51;36.35;;;17.38;;
39188;SDS011;24915;50.858;4.376;2023-04-07T07:13:17;29.48;;;16.40;;
39188;SDS011;24915;50.858;4.376;2023-04-07T07:15:44;34.53;;;16.40;;
39188;SDS011;24915;50.858;4.376;2023-04-07T07:18:10;33.97;;;15.85;;
39188;SDS011;24915;50.858;4.376;2023-04-07T07:20:36;33.92;;;15.80;;
39188;SDS011;24915;50.858;4.376;2023-04-07T07:23:02;31.33;;;14.60;;
39188;SDS011;24915;50.858;4.376;2023-04-07T07:25:28;31.13;;;14.40;;
39188;SDS011;24915;50.858;4.376;2023-04-07T07:27:54;24.00;;;12.77;;
39188;SDS011;24915;50.858;4.376;2023-04-07T07:30:20;23.88;;;12.07;;
39188;SDS011;24915;50.858;4.376;2023-04-07T07:32:46;24.52;;;12.05;;
39188;SDS011;24915;50.858;4.376;2023-04-07T07:35:12;27.88;;;11.70;;
39188;SDS011;24915;50.858;4.376;2023-04-07T07:37:38;23.08;;;12.35;;
39188;SDS011;24915;50.858;4.376;2023-04-07T07:40:04;23.58;;;12.50;;
39188;SDS011;24915;50.858;4.376;2023-04-07T07:42:30;34.08;;;14.32;;
39188;SDS011;24915;50.858;4.376;2023-04-07T07:44:56;19.17;;;11.90;;
39188;SDS011;24915;50.858;4.376;2023-04-07T07:47:22;19.27;;;10.75;;
39188;SDS011;24915;50.858;4.376;2023-04-07T07:49:49;28.10;;;11.88;;
39188;SDS011;24915;50.858;4.376;2023-04-07T07:52:15;23.38;;;12.20;;
39188;SDS011;24915;50.858;4.376;2023-04-07T07:54:41;26.80;;;12.00;;
39188;SDS011;24915;50.858;4.376;2023-04-07T07:57:06;19.80;;;10.73;;
39188;SDS011;24915;50.858;4.376;2023-04-07T07:59:32;26.98;;;13.43;;
39188;SDS011;24915;50.858;4.376;2023-04-07T08:01:58;27.00;;;11.35;;
39188;SDS011;24915;50.858;4.376;2023-04-07T08:04:24;18.95;;;9.60;;
39188;SDS011;24915;50.858;4.376;2023-04-07T08:06:50;24.45;;;9.32;;
39188;SDS011;24915;50.858;4.376;2023-04-07T08:09:17;17.50;;;8.55;;
39188;SDS011;24915;50.858;4.376;2023-04-07T08:11:43;14.80;;;8.27;;
39188;SDS011;24915;50.858;4.376;2023-04-07T08:14:08;20.33;;;8.20;;
39188;SDS011;24915;50.858;4.376;2023-04-07T08:16:34;12.45;;;8.30;;
39188;SDS011;24915;50.858;4.376;2023-04-07T08:19:00;20.83;;;8.52;;
39188;SDS011;24915;50.858;4.376;2023-04-07T08:21:25;24.77;;;8.50;;
39188;SDS011;24915;50.858;4.376;2023-04-07T08:23:54;16.73;;;8.27;;
39188;SDS011;24915;50.858;4.376;2023-04-07T08:26:20;25.30;;;8.32;;
39188;SDS011;24915;50.858;4.376;2023-04-07T08:28:47;14.70;;;6.60;;
39188;SDS011;24915;50.858;4.376;2023-04-07T08:31:15;10.52;;;6.20;;
39188;SDS011;24915;50.858;4.376;2023-04-07T08:33:41;16.17;;;6.53;;
39188;SDS011;24915;50.858;4.376;2023-04-07T08:36:07;12.18;;;5.78;;
39188;SDS011;24915;50.858;4.376;2023-04-07T08:38:32;15.38;;;6.47;;
39188;SDS011;24915;50.858;4.376;2023-04-07T08:41:09;14.98;;;6.28;;
39188;SDS011;24915;50.858;4.376;2023-04-07T08:43:37;16.15;;;7.68;;
39188;SDS011;24915;50.858;4.376;2023-04-07T08:46:04;22.08;;;7.88;;
39188;SDS011;24915;50.858;4.376;2023-04-07T08:48:32;31.13;;;7.65;;
39188;SDS011;24915;50.858;4.376;2023-04-07T08:51:05;17.58;;;7.38;;
39188;SDS011;24915;50.858;4.376;2023-04-07T08:53:40;18.95;;;6.90;;
39188;SDS011;24915;50.858;4.376;2023-04-07T08:56:12;10.20;;;5.53;;
39188;SDS011;24915;50.858;4.376;2023-04-07T08:58:38;16.85;;;6.93;;
39188;SDS011;24915;50.858;4.376;2023-04-07T09:01:04;13.07;;;6.18;;
39188;SDS011;24915;50.858;4.376;2023-04-07T09:03:31;13.90;;;6.38;;
39188;SDS011;24915;50.858;4.376;2023-04-07T09:05:59;16.05;;;5.25;;
39188;SDS011;24915;50.858;4.376;2023-04-07T09:08:25;8.88;;;4.80;;
39188;SDS011;24915;50.858;4.376;2023-04-07T09:10:51;12.95;;;5.40;;
39188;SDS011;24915;50.858;4.376;2023-04-07T09:13:18;20.15;;;9.07;;
39188;SDS011;24915;50.858;4.376;2023-04-07T09:15:43;12.25;;;4.82;;
39188;SDS011;24915;50.858;4.376;2023-04-07T09:18:10;12.50;;;3.60;;
39188;SDS011;24915;50.858;4.376;2023-04-07T09:23:26;7.25;;;3.72;;
39188;SDS011;24915;50.858;4.376;2023-04-07T09:25:53;10.80;;;3.47;;
39188;SDS011;24915;50.858;4.376;2023-04-07T09:28:19;9.25;;;2.85;;
39188;SDS011;24915;50.858;4.376;2023-04-07T09:30:53;11.60;;;2.63;;
39188;SDS011;24915;50.858;4.376;2023-04-07T09:33:28;5.85;;;2.40;;
39188;SDS011;24915;50.858;4.376;2023-04-07T09:35:54;5.10;;;2.30;;
39188;SDS011;24915;50.858;4.376;2023-04-07T09:38:20;5.72;;;2.38;;
39188;SDS011;24915;50.858;4.376;2023-04-07T09:40:46;8.65;;;2.25;;
39188;SDS011;24915;50.858;4.376;2023-04-07T09:43:16;4.32;;;2.17;;
39188;SDS011;24915;50.858;4.376;2023-04-07T09:45:42;9.73;;;2.40;;
39188;SDS011;24915;50.858;4.376;2023-04-07T09:48:18;6.75;;;2.03;;
39188;SDS011;24915;50.858;4.376;2023-04-07T09:50:44;6.03;;;2.50;;
39188;SDS011;24915;50.858;4.376;2023-04-07T09:53:16;4.82;;;2.50;;
39188;SDS011;24915;50.858;4.376;2023-04-07T09:55:43;8.30;;;1.95;;
39188;SDS011;24915;50.858;4.376;2023-04-07T09:58:12;7.68;;;2.10;;
39188;SDS011;24915;50.858;4.376;2023-04-07T10:00:38;5.30;;;2.10;;
39188;SDS011;24915;50.858;4.376;2023-04-07T10:03:06;5.38;;;2.00;;
39188;SDS011;24915;50.858;4.376;2023-04-07T10:05:32;9.57;;;2.53;;
39188;SDS011;24915;50.858;4.376;2023-04-07T10:08:00;4.93;;;2.20;;
39188;SDS011;24915;50.858;4.376;2023-04-07T10:10:26;5.50;;;1.92;;
39188;SDS011;24915;50.858;4.376;2023-04-07T10:12:55;5.57;;;2.20;;
39188;SDS011;24915;50.858;4.376;2023-04-07T10:15:22;5.47;;;1.85;;
39188;SDS011;24915;50.858;4.376;2023-04-07T10:17:48;6.95;;;2.28;;
39188;SDS011;24915;50.858;4.376;2023-04-07T10:20:16;7.47;;;1.90;;
39188;SDS011;24915;50.858;4.376;2023-04-07T10:22:44;5.68;;;2.53;;
39188;SDS011;24915;50.858;4.376;2023-04-07T10:25:13;5.57;;;2.50;;
39188;SDS011;24915;50.858;4.376;2023-04-07T10:27:42;5.25;;;2.28;;
39188;SDS011;24915;50.858;4.376;2023-04-07T10:30:26;3.63;;;1.63;;
39188;SDS011;24915;50.858;4.376;2023-04-07T10:32:53;6.82;;;2.75;;
39188;SDS011;24915;50.858;4.376;2023-04-07T10:35:19;11.60;;;3.10;;
39188;SDS011;24915;50.858;4.376;2023-04-07T10:43:07;7.65;;;2.60;;
39188;SDS011;24915;50.858;4.376;2023-04-07T10:48:16;8.15;;;2.42;;
39188;SDS011;24915;50.858;4.376;2023-04-07T10:50:46;9.15;;;2.30;;
39188;SDS011;24915;50.858;4.376;2023-04-07T10:53:28;7.22;;;2.78;;
39188;SDS011;24915;50.858;4.376;2023-04-07T10:55:53;8.02;;;2.95;;
39188;SDS011;24915;50.858;4.376;2023-04-07T10:58:30;11.35;;;2.80;;
39188;SDS011;24915;50.858;4.376;2023-04-07T11:03:31;9.10;;;3.42;;
39188;SDS011;24915;50.858;4.376;2023-04-07T11:06:02;7.22;;;3.58;;
39188;SDS011;24915;50.858;4.376;2023-04-07T11:08:35;12.02;;;3.70;;
39188;SDS011;24915;50.858;4.376;2023-04-07T11:11:08;10.77;;;3.15;;
39188;SDS011;24915;50.858;4.376;2023-04-07T11:13:42;9.13;;;3.67;;
39188;SDS011;24915;50.858;4.376;2023-04-07T11:16:10;7.90;;;3.40;;
39188;SDS011;24915;50.858;4.376;2023-04-07T11:18:37;11.73;;;4.10;;
39188;SDS011;24915;50.858;4.376;2023-04-07T11:21:03;10.27;;;3.95;;
39188;SDS011;24915;50.858;4.376;2023-04-07T11:23:36;10.73;;;3.55;;
39188;SDS011;24915;50.858;4.376;2023-04-07T11:26:03;9.57;;;3.60;;
39188;SDS011;24915;50.858;4.376;2023-04-07T11:28:29;14.27;;;3.45;;
39188;SDS011;24915;50.858;4.376;2023-04-07T11:30:55;8.55;;;3.72;;
39188;SDS011;24915;50.858;4.376;2023-04-07T11:33:26;14.57;;;3.47;;
39188;SDS011;24915;50.858;4.376;2023-04-07T11:36:00;28.85;;;11.65;;
39188;SDS011;24915;50.858;4.376;2023-04-07T11:38:28;34.40;;;15.13;;
39188;SDS011;24915;50.858;4.376;2023-04-07T11:41:08;31.27;;;11.90;;
39188;SDS011;24915;50.858;4.376;2023-04-07T11:43:35;16.80;;;6.13;;
39188;SDS011;24915;50.858;4.376;2023-04-07T11:46:02;18.80;;;5.32;;
39188;SDS011;24915;50.858;4.376;2023-04-07T11:48:30;7.15;;;4.03;;
39188;SDS011;24915;50.858;4.376;2023-04-07T11:50:57;11.13;;;4.70;;
39188;SDS011;24915;50.858;4.376;2023-04-07T11:53:27;9.38;;;4.00;;
39188;SDS011;24915;50.858;4.376;2023-04-07T11:56:03;9.55;;;3.42;;
39188;SDS011;24915;50.858;4.376;2023-04-07T11:58:33;5.70;;;3.50;;
39188;SDS011;24915;50.858;4.376;2023-04-07T12:01:00;8.25;;;4.00;;
39188;SDS011;24915;50.858;4.376;2023-04-07T12:03:30;12.02;;;4.38;;
39188;SDS011;24915;50.858;4.376;2023-04-07T12:06:01;13.40;;;3.97;;
39188;SDS011;24915;50.858;4.376;2023-04-07T12:08:40;9.00;;;3.50;;
39188;SDS011;24915;50.858;4.376;2023-04-07T12:11:07;13.95;;;3.72;;
39188;SDS011;24915;50.858;4.376;2023-04-07T12:13:35;8.93;;;2.72;;
39188;SDS011;24915;50.858;4.376;2023-04-07T12:16:01;7.93;;;2.50;;
39188;SDS011;24915;50.858;4.376;2023-04-07T12:18:28;9.57;;;2.97;;
39188;SDS011;24915;50.858;4.376;2023-04-07T12:20:54;8.40;;;3.00;;
39188;SDS011;24915;50.858;4.376;2023-04-07T12:23:21;10.93;;;2.97;;
39188;SDS011;24915;50.858;4.376;2023-04-07T12:25:46;11.35;;;3.40;;
39188;SDS011;24915;50.858;4.376;2023-04-07T12:28:12;8.20;;;3.05;;
39188;SDS011;24915;50.858;4.376;2023-04-07T12:30:38;6.63;;;3.20;;
39188;SDS011;24915;50.858;4.376;2023-04-07T12:33:04;8.50;;;2.95;;
39188;SDS011;24915;50.858;4.376;2023-04-07T12:35:29;20.52;;;4.97;;
39188;SDS011;24915;50.858;4.376;2023-04-07T12:37:56;14.35;;;3.30;;
39188;SDS011;24915;50.858;4.376;2023-04-07T12:40:22;10.10;;;3.40;;
39188;SDS011;24915;50.858;4.376;2023-04-07T12:42:48;7.57;;;3.20;;
39188;SDS011;24915;50.858;4.376;2023-04-07T12:45:13;12.88;;;4.03;;
39188;SDS011;24915;50.858;4.376;2023-04-07T12:47:39;8.38;;;3.40;;
39188;SDS011;24915;50.858;4.376;2023-04-07T12:50:05;8.40;;;3.45;;
39188;SDS011;24915;50.858;4.376;2023-04-07T12:52:31;9.10;;;3.33;;
39188;SDS011;24915;50.858;4.376;2023-04-07T12:54:57;16.13;;;3.97;;
39188;SDS011;24915;50.858;4.376;2023-04-07T12:57:23;11.07;;;3.17;;
39188;SDS011;24915;50.858;4.376;2023-04-07T12:59:49;12.13;;;3.03;;
39188;SDS011;24915;50.858;4.376;2023-04-07T13:02:15;6.80;;;2.72;;
39188;SDS011;24915;50.858;4.376;2023-04-07T13:04:43;11.75;;;2.47;;
39188;SDS011;24915;50.858;4.376;2023-04-07T13:07:11;10.52;;;3.00;;
39188;SDS011;24915;50.858;4.376;2023-04-07T13:09:40;5.35;;;2.42;;
39188;SDS011;24915;50.858;4.376;2023-04-07T13:12:09;7.10;;;2.90;;
39188;SDS011;24915;50.858;4.376;2023-04-07T13:14:36;10.20;;;2.45;;
39188;SDS011;24915;50.858;4.376;2023-04-07T13:17:03;8.88;;;2.88;;
39188;SDS011;24915;50.858;4.376;2023-04-07T13:19:29;7.57;;;3.30;;
39188;SDS011;24915;50.858;4.376;2023-04-07T13:21:55;6.75;;;2.75;;
39188;SDS011;24915;50.858;4.376;2023-04-07T13:24:21;10.35;;;3.08;;
39188;SDS011;24915;50.858;4.376;2023-04-07T13:26:47;18.42;;;4.15;;
39188;SDS011;24915;50.858;4.376;2023-04-07T13:29:13;9.07;;;3.13;;
39188;SDS011;24915;50.858;4.376;2023-04-07T13:31:38;9.77;;;3.10;;
39188;SDS011;24915;50.858;4.376;2023-04-07T13:34:04;11.40;;;3.72;;
39188;SDS011;24915;50.858;4.376;2023-04-07T13:36:30;11.93;;;3.20;;
39188;SDS011;24915;50.858;4.376;2023-04-07T13:38:55;8.70;;;3.17;;
39188;SDS011;24915;50.858;4.376;2023-04-07T13:41:21;11.32;;;2.92;;
39188;SDS011;24915;50.858;4.376;2023-04-07T13:43:47;11.40;;;3.47;;
39188;SDS011;24915;50.858;4.376;2023-04-07T13:46:13;11.80;;;3.30;;
39188;SDS011;24915;50.858;4.376;2023-04-07T13:48:40;15.43;;;4.88;;
39188;SDS011;24915;50.858;4.376;2023-04-07T13:51:06;7.65;;;3.17;;
39188;SDS011;24915;50.858;4.376;2023-04-07T13:53:31;11.40;;;3.50;;
39188;SDS011;24915;50.858;4.376;2023-04-07T13:55:57;6.10;;;2.83;;
39188;SDS011;24915;50.858;4.376;2023-04-07T13:58:23;5.60;;;2.65;;
39188;SDS011;24915;50.858;4.376;2023-04-07T14:00:49;15.05;;;3.85;;
39188;SDS011;24915;50.858;4.376;2023-04-07T14:03:15;12.40;;;3.75;;
39188;SDS011;24915;50.858;4.376;2023-04-07T14:05:41;10.80;;;3.20;;
39188;SDS011;24915;50.858;4.376;2023-04-07T14:08:06;15.27;;;3.63;;
39188;SDS011;24915;50.858;4.376;2023-04-07T14:10:32;9.82;;;3.28;;
39188;SDS011;24915;50.858;4.376;2023-04-07T14:12:58;14.20;;;3.90;;
39188;SDS011;24915;50.858;4.376;2023-04-07T14:15:24;13.43;;;3.42;;
39188;SDS011;24915;50.858;4.376;2023-04-07T14:17:50;10.48;;;2.95;;
39188;SDS011;24915;50.858;4.376;2023-04-07T14:20:16;17.65;;;3.47;;
39188;SDS011;24915;50.858;4.376;2023-04-07T14:22:41;11.20;;;3.38;;
39188;SDS011;24915;50.858;4.376;2023-04-07T14:25:07;13.57;;;3.58;;
39188;SDS011;24915;50.858;4.376;2023-04-07T14:27:33;8.73;;;2.83;;
39188;SDS011;24915;50.858;4.376;2023-04-07T14:29:58;12.18;;;3.63;;
39188;SDS011;24915;50.858;4.376;2023-04-07T14:32:25;18.55;;;3.35;;
39188;SDS011;24915;50.858;4.376;2023-04-07T14:34:53;8.75;;;3.80;;
39188;SDS011;24915;50.858;4.376;2023-04-07T14:37:19;10.18;;;4.40;;
39188;SDS011;24915;50.858;4.376;2023-04-07T14:39:48;9.07;;;4.13;;
39188;SDS011;24915;50.858;4.376;2023-04-07T14:42:14;9.98;;;4.57;;
39188;SDS011;24915;50.858;4.376;2023-04-07T14:44:40;10.27;;;3.97;;
39188;SDS011;24915;50.858;4.376;2023-04-07T14:47:05;12.13;;;4.95;;
39188;SDS011;24915;50.858;4.376;2023-04-07T14:49:31;12.88;;;4.38;;
39188;SDS011;24915;50.858;4.376;2023-04-07T14:51:57;10.50;;;4.30;;